KCLT

Charlotte/Douglas

Airport
ICAO code
KCLT
Summary
ICAO Region
NAM
ICAO Territory
Location

Charlotte, North Carolina,

Coordinates
35° 12' 50" N , 80° 56' 35" W
KCC
Airport LOS
Parallel Runway Operation
Airport RE
Engineered Materials Arresting System
Airport WX
Cumulonimbus
Metar
Observation
KCLT 300952Z 00000KT 5SM BR FEW003 BKN065 OVC120 07/07 A3017 RMK RAE34 SLP216 P0003 T00720067 $
Station
Charlotte, Charlotte / Douglas International Airport
Date/Time
2023-01-30 09:52:00
Wind direction
Wind speed
00 kts
Lowest cloud amount
few clouds
Temperature
7.2°C
Dew point
6.7°C
Humidity
96%
Weather condition
mist

Description

International airport serving Charlotte, North Carolina, USA.

Climatology

Humid “subtropical” climate (Köppen climate classification Cfa) - characterized by hot, humid summers and cool winters. Significant amounts of precipitation occur in all seasons in most areas. Winter rainfall (and sometimes snowfall) is associated with large storms that the westerlies steer from west to east. Most summer rainfall occurs during thunderstorms and occasional tropical storms (hurricanes).

SKYbrary Partners:

Safety knowledge contributed by: